Time,TemperatureF,DewpointF,PressureIn,WindDirection,WindDirectionDegrees,WindSpeedMPH,WindSpeedGustMPH,Humidity,HourlyPrecipIn,Conditions,Clouds,dailyrainin,SoftwareType,DateUTC
2013-01-26 00:06:00,54.5,39.0,29.97,ENE,74,0.0,0.0,56,0.00,,,0.00,weatherlink.com 1.10,2013-01-26 06:06:00,
2013-01-26 00:20:00,53.6,39.0,29.97,ENE,74,0.0,1.0,58,0.00,,,0.00,weatherlink.com 1.10,2013-01-26 06:20:00,
2013-01-26 00:35:00,53.7,39.0,29.97,ENE,74,0.0,1.0,58,0.00,,,0.00,weatherlink.com 1.10,2013-01-26 06:35:00,
2013-01-26 00:50:00,54.1,39.0,29.97,ENE,74,0.0,0.0,57,0.00,,,0.00,weatherlink.com 1.10,2013-01-26 06:50:00,
2013-01-26 01:05:00,55.3,39.0,29.96,ENE,74,0.0,1.0,54,0.00,,,0.00,weatherlink.com 1.10,2013-01-26 07:05:00,
2013-01-26 01:20:00,53.9,38.0,29.96,ENE,74,0.0,2.0,56,0.00,,,0.00,weatherlink.com 1.10,2013-01-26 07:20:00,
2013-01-26 01:36:00,55.6,39.0,29.96,ENE,74,0.0,1.0,54,0.00,,,0.00,weatherlink.com 1.10,2013-01-26 07:36:00,
2013-01-26 01:50:00,55.5,38.0,29.96,ENE,74,0.0,0.0,53,0.00,,,0.00,weatherlink.com 1.10,2013-01-26 07:50:00,
2013-01-26 02:06:00,52.2,38.0,29.96,ENE,74,0.0,0.0,60,0.00,,,0.00,weatherlink.com 1.10,2013-01-26 08:06:00,
2013-01-26 02:21:00,53.7,39.0,29.96,ENE,74,0.0,1.0,57,0.00,,,0.00,weatherlink.com 1.10,2013-01-26 08:21:00,
2013-01-26 02:36:00,53.9,39.0,29.95,ENE,74,0.0,0.0,57,0.00,,,0.00,weatherlink.com 1.10,2013-01-26 08:36:00,
2013-01-26 02:51:00,53.7,39.0,29.95,ENE,74,0.0,2.0,57,0.00,,,0.00,weatherlink.com 1.10,2013-01-26 08:51:00,
2013-01-26 03:06:00,56.0,39.0,29.94,ENE,74,0.0,2.0,54,0.00,,,0.00,weatherlink.com 1.10,2013-01-26 09:06:00,
2013-01-26 03:21:00,55.3,39.0,29.94,ENE,74,1.0,2.0,55,0.00,,,0.00,weatherlink.com 1.10,2013-01-26 09:21:00,
2013-01-26 03:36:00,54.5,39.0,29.94,ENE,74,1.0,1.0,56,0.00,,,0.00,weatherlink.com 1.10,2013-01-26 09:36:00,
2013-01-26 03:51:00,54.4,39.0,29.94,ENE,74,1.0,2.0,57,0.00,,,0.00,weatherlink.com 1.10,2013-01-26 09:51:00,
2013-01-26 04:06:00,54.5,39.0,29.94,ENE,74,3.0,3.0,57,0.00,,,0.00,weatherlink.com 1.10,2013-01-26 10:06:00,
2013-01-26 04:21:00,55.3,39.0,29.93,ENE,74,2.0,5.0,55,0.00,,,0.00,weatherlink.com 1.10,2013-01-26 10:21:00,
2013-01-26 04:36:00,54.8,39.0,29.94,ENE,74,0.0,4.0,55,0.00,,,0.00,weatherlink.com 1.10,2013-01-26 10:36:00,
2013-01-26 04:51:00,54.0,39.0,29.93,ENE,74,0.0,1.0,58,0.00,,,0.00,weatherlink.com 1.10,2013-01-26 10:51:00,
2013-01-26 05:06:00,53.6,39.0,29.93,ENE,74,0.0,0.0,59,0.00,,,0.00,weatherlink.com 1.10,2013-01-26 11:06:00,
2013-01-26 05:21:00,54.3,39.0,29.93,ENE,74,0.0,0.0,57,0.00,,,0.00,weatherlink.com 1.10,2013-01-26 11:21:00,
2013-01-26 05:36:00,53.6,39.0,29.93,ENE,74,0.0,0.0,59,0.00,,,0.00,weatherlink.com 1.10,2013-01-26 11:36:00,
2013-01-26 05:51:00,54.5,39.0,29.93,ENE,74,0.0,1.0,57,0.00,,,0.00,weatherlink.com 1.10,2013-01-26 11:51:00,
2013-01-26 06:06:00,54.8,39.0,29.93,ENE,74,0.0,0.0,56,0.00,,,0.00,weatherlink.com 1.10,2013-01-26 12:06:00,
2013-01-26 06:21:00,55.1,39.0,29.93,ENE,74,0.0,1.0,55,0.00,,,0.00,weatherlink.com 1.10,2013-01-26 12:21:00,
2013-01-26 06:36:00,55.1,39.0,29.94,ENE,74,0.0,0.0,55,0.00,,,0.00,weatherlink.com 1.10,2013-01-26 12:36:00,
2013-01-26 06:51:00,55.3,39.0,29.94,ENE,74,0.0,0.0,55,0.00,,,0.00,weatherlink.com 1.10,2013-01-26 12:51:00,
2013-01-26 07:06:00,55.8,39.0,29.94,ENE,74,0.0,0.0,54,0.00,,,0.00,weatherlink.com 1.10,2013-01-26 13:06:00,
2013-01-26 07:21:00,55.7,39.0,29.93,ENE,74,0.0,2.0,54,0.00,,,0.00,weatherlink.com 1.10,2013-01-26 13:21:00,
2013-01-26 07:36:00,55.6,39.0,29.93,ENE,74,0.0,0.0,55,0.00,,,0.00,weatherlink.com 1.10,2013-01-26 13:36:00,
2013-01-26 07:51:00,56.2,40.0,29.93,ENE,74,2.0,3.0,54,0.00,,,0.00,weatherlink.com 1.10,2013-01-26 13:51:00,
2013-01-26 08:06:00,56.9,39.0,29.93,ENE,74,0.0,3.0,52,0.00,,,0.00,weatherlink.com 1.10,2013-01-26 14:06:00,
2013-01-26 08:21:00,56.6,39.0,29.92,ENE,74,4.0,5.0,53,0.00,,,0.00,weatherlink.com 1.10,2013-01-26 14:21:00,
2013-01-26 08:36:00,58.3,40.0,29.91,ENE,74,3.0,5.0,50,0.00,,,0.00,weatherlink.com 1.10,2013-01-26 14:36:00,
2013-01-26 08:51:00,59.3,39.0,29.89,ENE,74,0.0,8.0,47,0.00,,,0.00,weatherlink.com 1.10,2013-01-26 14:51:00,
2013-01-26 09:06:00,54.3,40.0,29.92,ENE,74,1.0,5.0,60,0.00,,,0.00,weatherlink.com 1.10,2013-01-26 15:06:00,
2013-01-26 09:21:00,57.9,39.0,29.92,ENE,74,0.0,2.0,50,0.00,,,0.00,weatherlink.com 1.10,2013-01-26 15:21:00,
2013-01-26 09:37:00,60.4,39.0,29.92,ENE,63,0.0,2.0,46,0.00,,,0.00,weatherlink.com 1.10,2013-01-26 15:37:00,
2013-01-26 09:50:00,62.3,39.0,29.93,East,82,6.0,9.0,43,0.00,,,0.00,weatherlink.com 1.10,2013-01-26 15:50:00,
2013-01-26 10:06:00,65.3,39.0,29.93,SE,124,8.0,11.0,38,0.00,,,0.00,weatherlink.com 1.10,2013-01-26 16:06:00,
2013-01-26 10:21:00,66.1,39.0,29.94,ESE,109,3.0,12.0,37,0.00,,,0.00,weatherlink.com 1.10,2013-01-26 16:21:00,
2013-01-26 10:37:00,68.1,39.0,29.94,SE,136,1.0,11.0,34,0.00,,,0.00,weatherlink.com 1.10,2013-01-26 16:37:00,
2013-01-26 10:52:00,69.0,39.0,29.94,SE,142,0.0,2.0,33,0.00,,,0.00,weatherlink.com 1.10,2013-01-26 16:52:00,
2013-01-26 11:07:00,69.5,37.0,29.93,ESE,113,10.0,12.0,31,0.00,,,0.00,weatherlink.com 1.10,2013-01-26 17:07:00,
2013-01-26 11:22:00,70.4,37.0,29.93,ESE,107,7.0,13.0,30,0.00,,,0.00,weatherlink.com 1.10,2013-01-26 17:22:00,
2013-01-26 11:37:00,71.7,37.0,29.93,NW,319,4.0,13.0,28,0.00,,,0.00,weatherlink.com 1.10,2013-01-26 17:37:00,
2013-01-26 11:52:00,73.1,38.0,29.92,SSE,159,6.0,7.0,28,0.00,,,0.00,weatherlink.com 1.10,2013-01-26 17:52:00,
2013-01-26 12:07:00,73.7,37.0,29.91,SSW,194,3.0,11.0,26,0.00,,,0.00,weatherlink.com 1.10,2013-01-26 18:07:00,
2013-01-26 12:22:00,73.8,36.0,29.90,SSW,195,7.0,19.0,25,0.00,,,0.00,weatherlink.com 1.10,2013-01-26 18:22:00,
2013-01-26 12:37:00,74.0,34.0,29.89,SE,133,1.0,15.0,23,0.00,,,0.00,weatherlink.com 1.10,2013-01-26 18:37:00,
2013-01-26 12:52:00,74.8,35.0,29.88,ESE,117,15.0,17.0,23,0.00,,,0.00,weatherlink.com 1.10,2013-01-26 18:52:00,
2013-01-26 13:07:00,74.8,31.0,29.87,ESE,107,9.0,17.0,20,0.00,,,0.00,weatherlink.com 1.10,2013-01-26 19:07:00,
2013-01-26 13:22:00,74.9,32.0,29.86,East,86,6.0,17.0,21,0.00,,,0.00,weatherlink.com 1.10,2013-01-26 19:22:00,
2013-01-26 13:37:00,75.5,33.0,29.86,East,87,15.0,15.0,21,0.00,,,0.00,weatherlink.com 1.10,2013-01-26 19:37:00,
2013-01-26 13:52:00,75.9,33.0,29.85,ESE,121,12.0,16.0,21,0.00,,,0.00,weatherlink.com 1.10,2013-01-26 19:52:00,
2013-01-26 14:07:00,75.1,34.0,29.86,ESE,107,1.0,14.0,22,0.00,,,0.00,weatherlink.com 1.10,2013-01-26 20:07:00,
2013-01-26 14:22:00,75.1,35.0,29.84,South,170,5.0,16.0,23,0.00,,,0.00,weatherlink.com 1.10,2013-01-26 20:22:00,
2013-01-26 14:37:00,76.4,34.0,29.84,WNW,300,5.0,12.0,21,0.00,,,0.00,weatherlink.com 1.10,2013-01-26 20:37:00,
2013-01-26 14:52:00,73.2,33.0,29.84,WSW,254,1.0,18.0,23,0.00,,,0.00,weatherlink.com 1.10,2013-01-26 20:52:00,
2013-01-26 15:07:00,73.1,34.0,29.83,East,96,5.0,13.0,24,0.00,,,0.00,weatherlink.com 1.10,2013-01-26 21:07:00,
2013-01-26 15:22:00,74.7,33.0,29.83,South,179,2.0,9.0,22,0.00,,,0.00,weatherlink.com 1.10,2013-01-26 21:22:00,
2013-01-26 15:37:00,76.6,35.0,29.82,West,271,0.0,12.0,22,0.00,,,0.00,weatherlink.com 1.10,2013-01-26 21:37:00,
2013-01-26 15:53:00,76.0,34.0,29.82,SW,224,3.0,11.0,22,0.00,,,0.00,weatherlink.com 1.10,2013-01-26 21:53:00,
2013-01-26 16:07:00,76.0,33.0,29.81,SE,131,4.0,13.0,21,0.00,,,0.00,weatherlink.com 1.10,2013-01-26 22:07:00,
2013-01-26 16:22:00,74.0,34.0,29.81,ESE,104,5.0,16.0,23,0.00,,,0.00,weatherlink.com 1.10,2013-01-26 22:22:00,
2013-01-26 16:37:00,73.4,33.0,29.81,SSE,162,1.0,10.0,23,0.00,,,0.00,weatherlink.com 1.10,2013-01-26 22:37:00,
2013-01-26 16:53:00,72.6,34.0,29.81,East,95,8.0,13.0,24,0.00,,,0.00,weatherlink.com 1.10,2013-01-26 22:53:00,
2013-01-26 17:07:00,72.2,33.0,29.81,ESE,114,5.0,12.0,24,0.00,,,0.00,weatherlink.com 1.10,2013-01-26 23:07:00,
2013-01-26 17:22:00,72.4,34.0,29.80,SE,132,8.0,9.0,24,0.00,,,0.00,weatherlink.com 1.10,2013-01-26 23:22:00,
2013-01-26 17:38:00,72.3,33.0,29.81,ESE,108,3.0,10.0,24,0.00,,,0.00,weatherlink.com 1.10,2013-01-26 23:38:00,
2013-01-26 17:52:00,71.0,33.0,29.81,ESE,117,3.0,8.0,25,0.00,,,0.00,weatherlink.com 1.10,2013-01-26 23:52:00,
2013-01-26 18:07:00,69.6,33.0,29.81,ESE,118,7.0,8.0,26,0.00,,,0.00,weatherlink.com 1.10,2013-01-27 00:07:00,
2013-01-26 18:23:00,68.2,34.0,29.81,ESE,119,5.0,10.0,28,0.00,,,0.00,weatherlink.com 1.10,2013-01-27 00:23:00,
2013-01-26 18:37:00,67.7,33.0,29.81,ESE,118,5.0,10.0,28,0.00,,,0.00,weatherlink.com 1.10,2013-01-27 00:37:00,
2013-01-26 18:52:00,67.6,32.0,29.81,SE,132,7.0,11.0,27,0.00,,,0.00,weatherlink.com 1.10,2013-01-27 00:52:00,
2013-01-26 19:08:00,67.4,34.0,29.82,ESE,115,5.0,12.0,29,0.00,,,0.00,weatherlink.com 1.10,2013-01-27 01:08:00,
2013-01-26 19:22:00,66.8,36.0,29.82,ESE,111,0.0,10.0,32,0.00,,,0.00,weatherlink.com 1.10,2013-01-27 01:22:00,
2013-01-26 19:37:00,66.1,38.0,29.82,SE,130,8.0,9.0,36,0.00,,,0.00,weatherlink.com 1.10,2013-01-27 01:37:00,
2013-01-26 19:52:00,65.6,39.0,29.81,ESE,122,3.0,11.0,38,0.00,,,0.00,weatherlink.com 1.10,2013-01-27 01:52:00,
2013-01-26 20:07:00,65.0,40.0,29.81,ESE,117,8.0,13.0,40,0.00,,,0.00,weatherlink.com 1.10,2013-01-27 02:07:00,
2013-01-26 20:22:00,64.7,40.0,29.81,ESE,107,8.0,13.0,40,0.00,,,0.00,weatherlink.com 1.10,2013-01-27 02:22:00,
2013-01-26 20:37:00,64.0,40.0,29.82,ESE,105,9.0,14.0,41,0.00,,,0.00,weatherlink.com 1.10,2013-01-27 02:37:00,
2013-01-26 20:52:00,63.3,40.0,29.82,ESE,105,10.0,12.0,42,0.00,,,0.00,weatherlink.com 1.10,2013-01-27 02:52:00,
2013-01-26 21:07:00,63.4,40.0,29.81,ESE,106,12.0,16.0,43,0.00,,,0.00,weatherlink.com 1.10,2013-01-27 03:07:00,
2013-01-26 21:38:00,62.9,41.0,29.81,ESE,104,10.0,15.0,45,0.00,,,0.00,weatherlink.com 1.10,2013-01-27 03:38:00,
2013-01-26 21:52:00,62.6,41.0,29.80,ESE,118,12.0,18.0,46,0.00,,,0.00,weatherlink.com 1.10,2013-01-27 03:52:00,
2013-01-26 22:08:00,62.6,41.0,29.81,SE,126,3.0,12.0,46,0.00,,,0.00,weatherlink.com 1.10,2013-01-27 04:08:00,
2013-01-26 22:23:00,62.7,40.0,29.80,ESE,120,5.0,9.0,44,0.00,,,0.00,weatherlink.com 1.10,2013-01-27 04:23:00,
2013-01-26 22:38:00,62.7,40.0,29.81,SE,135,7.0,7.0,43,0.00,,,0.00,weatherlink.com 1.10,2013-01-27 04:38:00,
2013-01-26 22:53:00,62.8,40.0,29.81,ESE,119,1.0,10.0,43,0.00,,,0.00,weatherlink.com 1.10,2013-01-27 04:53:00,
2013-01-26 23:08:00,62.0,40.0,29.82,ESE,119,4.0,4.0,45,0.00,,,0.00,weatherlink.com 1.10,2013-01-27 05:08:00,
2013-01-26 23:23:00,62.5,39.0,29.82,ESE,119,3.0,7.0,42,0.00,,,0.00,weatherlink.com 1.10,2013-01-27 05:23:00,
2013-01-26 23:38:00,62.7,40.0,29.82,ESE,117,7.0,9.0,43,0.00,,,0.00,weatherlink.com 1.10,2013-01-27 05:38:00,
2013-01-26 23:53:00,62.7,39.0,29.82,ESE,120,7.0,11.0,42,0.00,,,0.00,weatherlink.com 1.10,2013-01-27 05:53:00,